x

Buoy E01 - Central Maine Shelf (44032) Wave Buoy

6:04 - Wed 20th Sep 2017 All times are EDT. -4 hours from GMT.

  • Sig Wave height 7.5ft
  • Peak Period 11s
  • Wind
    11mph, 11mph gusts
  • Sea Temp 56°f
  • Luft Temp 60°f
  • Sea Pressure 1012.5mb
  • Buoy E01 - Central Maine Shelf
  • Buoy E01 - Central Maine Shelf

More Historic Weather Station data

Upgrade to MSW Pro to gain access to the past 30 days of data for over 8000 Wavebouys and Weather Stations around the globe.

Join

Comparision Forecast

View Surf forecast
   
Mi 09/20 6:04 7.5ft 11s 11 11 mph 1012.5mb 56f 60f
5:04 8.5ft 11s 11 11 mph 1012.1mb 56f 60f
4:04 6.5ft 11s 11 13 mph 1012.3mb 56f 62f
3:04 7ft 11s 16 16 mph 1012.1mb 56f 64f
2:04 8ft 11s 16 20 mph 1012.4mb 56f 62f
1:04  -   -  16 18 mph 1013mb 57f 63f
12:04 7ft 11s 18 22 mph 1013.2mb 58f 63f
11:04 6ft 11s 18 20 mph 1013.8mb 58f 62f
10:04  -   -  16 18 mph 1013.8mb 57f 61f
9:04  -   -  16 18 mph 1014.3mb 57f 61f
8:04 6.5ft 11s 16 18 mph 1014.4mb 57f 60f
7:04  -   -  18 20 mph 1014.6mb 57f 61f
6:04 7.5ft 11s 16 20 mph 1014.4mb 57f 60f
5:04  -   -  16 20 mph 1014.3mb 57f 61f
4:04 8ft 11s 18 20 mph 1014.5mb 57f 60f
3:04 6ft 11s 18 20 mph 1014.8mb 57f 60f
2:04 8ft 11s 16 20 mph 1015.3mb 58f 60f
1:04 7ft 11s 11 13 mph 1016mb 58f 59f
12:04 6ft 11s 16 18 mph 1016.2mb 58f 59f
Di 09/19 11:04  -   -  16 18 mph 1016.7mb 58f 59f
10:04 4.5ft 6s 13 18 mph 1017.3mb 58f 59f
9:04 5ft 8s 16 20 mph 1017.1mb 58f 59f
8:04  -   -  16 18 mph 1017.6mb 58f 59f
7:04  -   -  16 18 mph 1017.7mb 58f 58f
6:04  -   -  16 18 mph 1017.9mb 58f 58f
5:04 7.5ft 11s 16 18 mph 1017.9mb 58f 58f
4:04  -   -  16 18 mph 1018.1mb 58f 59f
3:04 6.5ft 11s 16 18 mph 1018.5mb 58f 59f
2:04 2ft 4s 13 16 mph 1019.2mb 58f 59f
1:04 2ft 3s 13 18 mph 1019.6mb 58f 59f
12:04  -   -  13 16 mph 1020.3mb 58f 59f
11:04 2.5ft 6s 16 18 mph 1020.5mb 58f 59f
10:04 1.6ft 2s 13 16 mph 1020.7mb 59f 58f
9:04  -   -  13 16 mph 1021mb 58f 58f
8:04  -   -  13 16 mph 1020.9mb 59f 58f
7:04  -   -  13 16 mph 1020.9mb 59f 58f
6:04 5ft 11s 13 16 mph 1020.9mb 59f 58f
5:04 6ft 11s 13 16 mph 1021.1mb 59f 58f
4:04  -   -  11 13 mph 1021.3mb 59f 58f
3:04 6ft 11s 11 13 mph 1021.3mb 59f 58f
2:04 5ft 11s 13 13 mph 1021.6mb 59f 58f
1:04 5ft 11s 11 13 mph 1022mb 59f 58f
12:04  -   -  11 13 mph 1021.8mb 59f 58f
Mo 09/18 11:04 4.5ft 11s 9 11 mph 1022.2mb 59f 58f
10:04  -   -  11 11 mph 1022.4mb 59f 58f
9:04  -   -  13 13 mph 1022.2mb 59f 59f
8:04 1.3ft 2s 11 13 mph 1022.4mb 59f 59f
7:04  -   -  11 13 mph 1021.9mb 59f 59f
6:04 3.5ft 8s 11 13 mph 1022mb 59f 59f
5:04 5ft 11s 11 11 mph 1022mb 59f 59f
4:04 5ft 11s 11 13 mph 1022mb 59f 59f
3:04 4.5ft 11s 9 11 mph 1021.9mb 59f 59f
2:04  -   -  7 9 mph 1022.1mb 59f 60f
1:04 6.5ft 16s 7 7 mph 1021.8mb 59f 60f
12:04 5ft 11s 4 7 mph 1022mb 59f 60f
11:04 2.5ft 6s 4 7 mph 1022mb 60f 60f
10:04  -   -  4 4 mph 1022.1mb 60f 60f
9:04 4ft 11s 4 7 mph 1022.5mb 60f 60f
8:04 3.5ft 11s 7 9 mph 1022.1mb 60f 60f
7:04 4ft 11s 4 4 mph 1021.4mb 60f 60f
6:04 4ft 11s 2 4 mph 1021.1mb 60f 60f
4:04 5.5ft 11s 2 4 mph 1020.8mb 61f 60f
3:04  -   -  2 4 mph 1020.9mb 60f 60f
2:04 5ft 11s 4 7 mph 1021mb 60f 61f
1:04 4.5ft 11s 2 4 mph 1020.9mb 61f 61f
12:04 3.5ft 11s 2 4 mph 1020.9mb 61f 61f
So 09/17 11:04 4ft 11s 2 4 mph 1020.8mb 61f 61f
10:04 3.5ft 11s 4 7 mph 1020.9mb 61f 61f
9:04 3.5ft 11s 7 9 mph 1020.6mb 61f 61f
8:04 3.5ft 11s 9 9 mph 1020.5mb 61f 61f
7:04 3.5ft 11s 9 11 mph 1020mb 61f 60f
6:04 3.5ft 11s 9 11 mph 1020.2mb 61f 61f
5:04 3.5ft 11s 9 9 mph 1020.5mb 62f 61f
4:04 4.5ft 11s 7 7 mph 1020.6mb 61f 61f
3:04 4.5ft 11s 4 7 mph 1020.5mb 62f 61f
2:04 3.5ft 11s 4 7 mph 1020.6mb 62f 61f
1:04 5ft 11s 4 7 mph 1020.9mb 61f 61f
12:04 4.5ft 11s 4 4 mph 1021.4mb 61f 61f
11:04 3.5ft 11s 4 4 mph 1021.3mb 61f 60f
10:04 3.5ft 11s 2 2 mph 1021.4mb 61f 60f
9:04 2.5ft 11s 2 2 mph 1021.6mb 61f 60f
8:04 3ft 11s 2 4 mph 1021.4mb 61f 60f
7:04 2.5ft 11s 2 2 mph 1020.9mb 60f 60f
6:04 2.5ft 11s 7 7 mph 1020.5mb 60f 60f
5:04  -   -  4 4 mph 1020.5mb 60f 60f
4:04 1ft 2s 7 9 mph 1020.2mb 60f 59f
3:04 4ft 11s 4 4 mph 1020mb 60f 59f
2:04 3.5ft 11s 4 7 mph 1020.3mb 60f 59f
1:04 4ft 11s 7 7 mph 1020.6mb 60f 59f
12:04 4.5ft 11s 9 9 mph 1020.3mb 60f 59f